Etusivu
METAR-TAF:

METAR-TAF

Lentoasemat :

Harlan Municipal Airport

Harlan, Iowa, Yhdysvallat

Leveyspiiri: 41-35-04N, Pituuspiiri: 095-20-23W, korkeus merenpinnasta: 375 m

Tämänhetkinen sää

Tämä raportti tehtiin 12 minuuttia sitten, kello 14.55 UTC
Tuuli 5 kn idästä
Lämpötila 21°C
Kosteus 94%
Ilmanpaine 1026 hPa
Näkyvyys: 16.1 km
Hajonneita pilviä 1000 ft:n korkeudessa
Hajanaisia pilviä 1400 ft:n korkeudessa
Hajonneita pilviä 2000 ft:n korkeudessa

METAR: KHNR 201455Z AUTO 10005KT 10SM BKN010 SCT014 BKN020 21/20 A3029 RMK A01

Aika: 10:07 (15:07 UTC)


TAF: puuttuu

Säähavainnot ja -ennusteet yli 4000 lentoasemalta (METAR- ja TAF-raportit).

Käytössä olevat sääasemat on merkitty karttaan keltaisilla ja punaisilla pisteillä.

Aseta hiiri pisteen päälle nähdäksesi sääaseman nimen.

Klikkaa sitten nähdäksesi säähavainnot ja -ennusteet.

Kartan vaihtaminen: klikkaa mustalla rastilla varustettuja vihreitä pisteitä, niin voit zoomata sisään; viivalla varustettua vihreää pistettä, niin voit zoomata ulos tai vihreitä nuolia, niin pääset viereisille kartoille.


METAR-TAF: